sensor_id;sensor_type;location;lat;lon;timestamp;P1;durP1;ratioP1;P2;durP2;ratioP2
14381;SDS011;7275;50.328;8.720;2022-07-22T00:02:18;3.53;;;3.23;;
14381;SDS011;7275;50.328;8.720;2022-07-22T00:04:46;3.60;;;3.30;;
14381;SDS011;7275;50.328;8.720;2022-07-22T00:07:14;3.70;;;3.40;;
14381;SDS011;7275;50.328;8.720;2022-07-22T00:09:43;3.90;;;3.50;;
14381;SDS011;7275;50.328;8.720;2022-07-22T00:12:10;4.17;;;3.60;;
14381;SDS011;7275;50.328;8.720;2022-07-22T00:14:38;3.60;;;3.30;;
14381;SDS011;7275;50.328;8.720;2022-07-22T00:17:06;3.70;;;3.40;;
14381;SDS011;7275;50.328;8.720;2022-07-22T00:19:33;3.97;;;3.63;;
14381;SDS011;7275;50.328;8.720;2022-07-22T00:22:01;3.77;;;3.47;;
14381;SDS011;7275;50.328;8.720;2022-07-22T00:24:29;3.90;;;3.53;;
14381;SDS011;7275;50.328;8.720;2022-07-22T00:26:58;3.87;;;3.50;;
14381;SDS011;7275;50.328;8.720;2022-07-22T00:29:25;4.20;;;3.80;;
14381;SDS011;7275;50.328;8.720;2022-07-22T00:31:53;4.37;;;3.97;;
14381;SDS011;7275;50.328;8.720;2022-07-22T00:34:20;3.83;;;3.53;;
14381;SDS011;7275;50.328;8.720;2022-07-22T00:36:48;4.10;;;3.60;;
14381;SDS011;7275;50.328;8.720;2022-07-22T00:39:15;4.07;;;3.57;;
14381;SDS011;7275;50.328;8.720;2022-07-22T00:41:43;3.83;;;3.43;;
14381;SDS011;7275;50.328;8.720;2022-07-22T00:44:12;4.00;;;3.57;;
14381;SDS011;7275;50.328;8.720;2022-07-22T00:46:40;4.27;;;3.87;;
14381;SDS011;7275;50.328;8.720;2022-07-22T00:49:08;3.33;;;3.10;;
14381;SDS011;7275;50.328;8.720;2022-07-22T00:51:36;3.33;;;3.03;;
14381;SDS011;7275;50.328;8.720;2022-07-22T00:54:05;3.37;;;3.03;;
14381;SDS011;7275;50.328;8.720;2022-07-22T00:56:33;3.03;;;2.83;;
14381;SDS011;7275;50.328;8.720;2022-07-22T00:59:03;3.70;;;2.90;;
14381;SDS011;7275;50.328;8.720;2022-07-22T01:01:34;3.37;;;2.87;;
14381;SDS011;7275;50.328;8.720;2022-07-22T01:04:02;3.33;;;3.00;;
14381;SDS011;7275;50.328;8.720;2022-07-22T01:06:30;2.83;;;2.57;;
14381;SDS011;7275;50.328;8.720;2022-07-22T01:08:58;3.40;;;2.80;;
14381;SDS011;7275;50.328;8.720;2022-07-22T01:11:26;3.53;;;2.77;;
14381;SDS011;7275;50.328;8.720;2022-07-22T01:13:55;3.20;;;2.90;;
14381;SDS011;7275;50.328;8.720;2022-07-22T01:16:24;3.00;;;2.80;;
14381;SDS011;7275;50.328;8.720;2022-07-22T01:18:53;3.13;;;2.83;;
14381;SDS011;7275;50.328;8.720;2022-07-22T01:21:23;3.10;;;2.80;;
14381;SDS011;7275;50.328;8.720;2022-07-22T01:23:51;3.17;;;2.87;;
14381;SDS011;7275;50.328;8.720;2022-07-22T01:26:18;3.07;;;2.83;;
14381;SDS011;7275;50.328;8.720;2022-07-22T01:28:46;3.10;;;2.80;;
14381;SDS011;7275;50.328;8.720;2022-07-22T01:31:13;2.80;;;2.60;;
14381;SDS011;7275;50.328;8.720;2022-07-22T01:33:41;2.80;;;2.60;;
14381;SDS011;7275;50.328;8.720;2022-07-22T01:36:09;2.80;;;2.60;;
14381;SDS011;7275;50.328;8.720;2022-07-22T01:38:38;2.67;;;2.47;;
14381;SDS011;7275;50.328;8.720;2022-07-22T01:41:05;2.87;;;2.67;;
14381;SDS011;7275;50.328;8.720;2022-07-22T01:43:34;2.60;;;2.40;;
14381;SDS011;7275;50.328;8.720;2022-07-22T01:46:01;3.13;;;2.57;;
14381;SDS011;7275;50.328;8.720;2022-07-22T01:48:30;3.20;;;2.53;;
14381;SDS011;7275;50.328;8.720;2022-07-22T01:50:57;3.03;;;2.67;;
14381;SDS011;7275;50.328;8.720;2022-07-22T01:53:25;2.87;;;2.60;;
14381;SDS011;7275;50.328;8.720;2022-07-22T01:55:54;2.70;;;2.50;;
14381;SDS011;7275;50.328;8.720;2022-07-22T01:58:22;3.00;;;2.63;;
14381;SDS011;7275;50.328;8.720;2022-07-22T02:00:49;3.13;;;2.80;;
14381;SDS011;7275;50.328;8.720;2022-07-22T02:03:17;2.80;;;2.60;;
14381;SDS011;7275;50.328;8.720;2022-07-22T02:05:44;3.00;;;2.80;;
14381;SDS011;7275;50.328;8.720;2022-07-22T02:08:12;2.70;;;2.50;;
14381;SDS011;7275;50.328;8.720;2022-07-22T02:10:40;2.83;;;2.63;;
14381;SDS011;7275;50.328;8.720;2022-07-22T02:13:09;3.50;;;3.20;;
14381;SDS011;7275;50.328;8.720;2022-07-22T02:15:37;3.87;;;3.20;;
14381;SDS011;7275;50.328;8.720;2022-07-22T02:18:09;3.00;;;2.80;;
14381;SDS011;7275;50.328;8.720;2022-07-22T02:20:38;3.33;;;3.03;;
14381;SDS011;7275;50.328;8.720;2022-07-22T02:23:05;3.40;;;3.10;;
14381;SDS011;7275;50.328;8.720;2022-07-22T02:25:33;2.90;;;2.70;;
14381;SDS011;7275;50.328;8.720;2022-07-22T02:28:02;3.83;;;3.37;;
14381;SDS011;7275;50.328;8.720;2022-07-22T02:30:31;3.20;;;3.00;;
14381;SDS011;7275;50.328;8.720;2022-07-22T02:32:58;3.40;;;3.10;;
14381;SDS011;7275;50.328;8.720;2022-07-22T02:35:26;3.53;;;3.00;;
14381;SDS011;7275;50.328;8.720;2022-07-22T02:37:56;3.67;;;3.33;;
14381;SDS011;7275;50.328;8.720;2022-07-22T02:40:23;3.47;;;3.17;;
14381;SDS011;7275;50.328;8.720;2022-07-22T02:42:51;3.23;;;3.03;;
14381;SDS011;7275;50.328;8.720;2022-07-22T02:45:19;3.30;;;3.00;;
14381;SDS011;7275;50.328;8.720;2022-07-22T02:47:49;3.77;;;3.13;;
14381;SDS011;7275;50.328;8.720;2022-07-22T02:50:17;3.13;;;2.90;;
14381;SDS011;7275;50.328;8.720;2022-07-22T02:52:45;3.23;;;2.93;;
14381;SDS011;7275;50.328;8.720;2022-07-22T02:55:13;3.67;;;3.20;;
14381;SDS011;7275;50.328;8.720;2022-07-22T02:57:40;3.17;;;2.87;;
14381;SDS011;7275;50.328;8.720;2022-07-22T03:00:08;3.27;;;3.03;;
14381;SDS011;7275;50.328;8.720;2022-07-22T03:02:37;3.37;;;3.07;;
14381;SDS011;7275;50.328;8.720;2022-07-22T03:05:07;4.10;;;3.27;;
14381;SDS011;7275;50.328;8.720;2022-07-22T03:07:35;3.40;;;3.10;;
14381;SDS011;7275;50.328;8.720;2022-07-22T03:10:04;3.80;;;3.50;;
14381;SDS011;7275;50.328;8.720;2022-07-22T03:12:32;4.40;;;4.00;;
14381;SDS011;7275;50.328;8.720;2022-07-22T03:14:59;4.37;;;3.87;;
14381;SDS011;7275;50.328;8.720;2022-07-22T03:17:27;3.67;;;3.37;;
14381;SDS011;7275;50.328;8.720;2022-07-22T03:19:54;4.00;;;3.70;;
14381;SDS011;7275;50.328;8.720;2022-07-22T03:22:23;4.00;;;3.60;;
14381;SDS011;7275;50.328;8.720;2022-07-22T03:24:51;3.67;;;3.37;;
14381;SDS011;7275;50.328;8.720;2022-07-22T03:27:18;4.00;;;3.70;;
14381;SDS011;7275;50.328;8.720;2022-07-22T03:29:45;4.33;;;3.63;;
14381;SDS011;7275;50.328;8.720;2022-07-22T03:32:13;4.13;;;3.83;;
14381;SDS011;7275;50.328;8.720;2022-07-22T03:34:40;5.40;;;4.40;;
14381;SDS011;7275;50.328;8.720;2022-07-22T03:37:08;4.83;;;4.43;;
14381;SDS011;7275;50.328;8.720;2022-07-22T03:39:37;4.93;;;4.53;;
14381;SDS011;7275;50.328;8.720;2022-07-22T03:42:05;5.07;;;4.67;;
14381;SDS011;7275;50.328;8.720;2022-07-22T03:44:32;5.17;;;4.67;;
14381;SDS011;7275;50.328;8.720;2022-07-22T03:47:00;5.17;;;4.77;;
14381;SDS011;7275;50.328;8.720;2022-07-22T03:49:27;5.20;;;4.60;;
14381;SDS011;7275;50.328;8.720;2022-07-22T03:51:55;5.50;;;5.00;;
14381;SDS011;7275;50.328;8.720;2022-07-22T03:54:23;4.83;;;4.43;;
14381;SDS011;7275;50.328;8.720;2022-07-22T03:56:52;4.57;;;4.17;;
14381;SDS011;7275;50.328;8.720;2022-07-22T03:59:19;5.67;;;4.43;;
14381;SDS011;7275;50.328;8.720;2022-07-22T04:01:47;4.33;;;4.03;;
14381;SDS011;7275;50.328;8.720;2022-07-22T04:04:14;4.27;;;3.93;;
14381;SDS011;7275;50.328;8.720;2022-07-22T04:06:42;4.70;;;4.30;;
14381;SDS011;7275;50.328;8.720;2022-07-22T04:09:11;4.67;;;4.27;;
14381;SDS011;7275;50.328;8.720;2022-07-22T04:11:38;5.00;;;4.60;;
14381;SDS011;7275;50.328;8.720;2022-07-22T04:14:07;4.70;;;4.30;;
14381;SDS011;7275;50.328;8.720;2022-07-22T04:16:35;4.67;;;4.27;;
14381;SDS011;7275;50.328;8.720;2022-07-22T04:19:03;4.23;;;3.83;;
14381;SDS011;7275;50.328;8.720;2022-07-22T04:21:30;4.40;;;4.03;;
14381;SDS011;7275;50.328;8.720;2022-07-22T04:23:58;4.90;;;4.50;;
14381;SDS011;7275;50.328;8.720;2022-07-22T04:26:27;4.90;;;4.37;;
14381;SDS011;7275;50.328;8.720;2022-07-22T04:28:55;5.50;;;4.50;;
14381;SDS011;7275;50.328;8.720;2022-07-22T04:31:25;4.63;;;4.23;;
14381;SDS011;7275;50.328;8.720;2022-07-22T04:33:53;5.43;;;4.77;;
14381;SDS011;7275;50.328;8.720;2022-07-22T04:36:22;5.33;;;4.83;;
14381;SDS011;7275;50.328;8.720;2022-07-22T04:38:50;6.10;;;5.20;;
14381;SDS011;7275;50.328;8.720;2022-07-22T04:41:18;5.40;;;4.90;;
14381;SDS011;7275;50.328;8.720;2022-07-22T04:43:46;5.67;;;5.17;;
14381;SDS011;7275;50.328;8.720;2022-07-22T04:46:14;5.40;;;4.73;;
14381;SDS011;7275;50.328;8.720;2022-07-22T04:48:43;6.13;;;5.00;;
14381;SDS011;7275;50.328;8.720;2022-07-22T04:51:10;5.07;;;4.67;;
14381;SDS011;7275;50.328;8.720;2022-07-22T04:53:38;5.27;;;4.77;;
14381;SDS011;7275;50.328;8.720;2022-07-22T04:56:14;4.83;;;4.43;;
14381;SDS011;7275;50.328;8.720;2022-07-22T04:58:42;4.60;;;4.20;;
14381;SDS011;7275;50.328;8.720;2022-07-22T05:01:09;5.10;;;4.63;;
14381;SDS011;7275;50.328;8.720;2022-07-22T05:03:37;4.80;;;4.40;;
14381;SDS011;7275;50.328;8.720;2022-07-22T05:06:06;4.53;;;4.13;;
14381;SDS011;7275;50.328;8.720;2022-07-22T05:08:34;3.97;;;3.67;;
14381;SDS011;7275;50.328;8.720;2022-07-22T05:11:01;3.70;;;3.40;;
14381;SDS011;7275;50.328;8.720;2022-07-22T05:13:29;3.87;;;3.57;;
14381;SDS011;7275;50.328;8.720;2022-07-22T05:15:57;3.90;;;3.50;;
14381;SDS011;7275;50.328;8.720;2022-07-22T05:18:29;3.70;;;3.40;;
14381;SDS011;7275;50.328;8.720;2022-07-22T05:20:57;3.77;;;3.47;;
14381;SDS011;7275;50.328;8.720;2022-07-22T05:23:26;3.37;;;3.10;;
14381;SDS011;7275;50.328;8.720;2022-07-22T05:25:54;3.63;;;3.33;;
14381;SDS011;7275;50.328;8.720;2022-07-22T05:28:21;3.47;;;3.17;;
14381;SDS011;7275;50.328;8.720;2022-07-22T05:30:49;3.63;;;3.33;;
14381;SDS011;7275;50.328;8.720;2022-07-22T05:33:16;3.30;;;3.00;;
14381;SDS011;7275;50.328;8.720;2022-07-22T05:35:44;2.90;;;2.70;;
14381;SDS011;7275;50.328;8.720;2022-07-22T05:38:11;3.43;;;3.10;;
14381;SDS011;7275;50.328;8.720;2022-07-22T05:40:40;4.23;;;3.13;;
14381;SDS011;7275;50.328;8.720;2022-07-22T05:43:08;3.00;;;2.80;;
14381;SDS011;7275;50.328;8.720;2022-07-22T05:45:35;2.90;;;2.70;;
14381;SDS011;7275;50.328;8.720;2022-07-22T05:48:03;2.90;;;2.70;;
14381;SDS011;7275;50.328;8.720;2022-07-22T05:50:30;3.07;;;2.77;;
14381;SDS011;7275;50.328;8.720;2022-07-22T05:52:58;3.10;;;2.80;;
14381;SDS011;7275;50.328;8.720;2022-07-22T05:55:26;3.20;;;2.90;;
14381;SDS011;7275;50.328;8.720;2022-07-22T05:57:55;2.50;;;2.30;;
14381;SDS011;7275;50.328;8.720;2022-07-22T06:00:22;2.90;;;2.53;;
14381;SDS011;7275;50.328;8.720;2022-07-22T06:02:50;3.23;;;2.50;;
14381;SDS011;7275;50.328;8.720;2022-07-22T06:05:18;2.60;;;2.30;;
14381;SDS011;7275;50.328;8.720;2022-07-22T06:08:02;2.90;;;2.70;;
14381;SDS011;7275;50.328;8.720;2022-07-22T06:10:31;2.37;;;2.27;;
14381;SDS011;7275;50.328;8.720;2022-07-22T06:12:59;2.50;;;2.30;;
14381;SDS011;7275;50.328;8.720;2022-07-22T06:15:27;2.30;;;2.10;;
14381;SDS011;7275;50.328;8.720;2022-07-22T06:17:55;2.50;;;2.30;;
14381;SDS011;7275;50.328;8.720;2022-07-22T06:20:22;2.20;;;1.80;;
14381;SDS011;7275;50.328;8.720;2022-07-22T06:22:50;2.38;;;2.17;;
14381;SDS011;7275;50.328;8.720;2022-07-22T06:25:17;2.00;;;1.90;;
14381;SDS011;7275;50.328;8.720;2022-07-22T06:28:06;2.30;;;2.10;;
14381;SDS011;7275;50.328;8.720;2022-07-22T06:30:33;2.30;;;2.10;;
14381;SDS011;7275;50.328;8.720;2022-07-22T06:33:01;2.40;;;2.20;;
14381;SDS011;7275;50.328;8.720;2022-07-22T06:35:29;2.17;;;2.05;;
14381;SDS011;7275;50.328;8.720;2022-07-22T06:37:57;2.38;;;2.17;;
14381;SDS011;7275;50.328;8.720;2022-07-22T06:40:31;2.17;;;2.00;;
14381;SDS011;7275;50.328;8.720;2022-07-22T06:42:59;2.05;;;1.85;;
14381;SDS011;7275;50.328;8.720;2022-07-22T06:45:29;2.30;;;2.10;;
14381;SDS011;7275;50.328;8.720;2022-07-22T06:47:56;2.15;;;1.98;;
14381;SDS011;7275;50.328;8.720;2022-07-22T06:50:24;2.00;;;1.90;;
14381;SDS011;7275;50.328;8.720;2022-07-22T06:52:55;2.50;;;2.30;;
14381;SDS011;7275;50.328;8.720;2022-07-22T06:55:22;2.28;;;2.08;;
14381;SDS011;7275;50.328;8.720;2022-07-22T06:57:50;1.92;;;1.80;;
14381;SDS011;7275;50.328;8.720;2022-07-22T07:00:18;2.25;;;2.05;;
14381;SDS011;7275;50.328;8.720;2022-07-22T07:02:47;2.20;;;2.00;;
14381;SDS011;7275;50.328;8.720;2022-07-22T07:05:14;2.03;;;1.92;;
14381;SDS011;7275;50.328;8.720;2022-07-22T07:07:45;1.90;;;1.80;;
14381;SDS011;7275;50.328;8.720;2022-07-22T07:10:13;2.13;;;1.95;;
14381;SDS011;7275;50.328;8.720;2022-07-22T07:12:42;2.13;;;1.80;;
14381;SDS011;7275;50.328;8.720;2022-07-22T07:15:10;2.25;;;2.05;;
14381;SDS011;7275;50.328;8.720;2022-07-22T07:17:51;2.10;;;1.90;;
14381;SDS011;7275;50.328;8.720;2022-07-22T07:20:19;1.80;;;1.70;;
14381;SDS011;7275;50.328;8.720;2022-07-22T07:22:47;2.30;;;2.10;;
14381;SDS011;7275;50.328;8.720;2022-07-22T07:25:15;2.53;;;2.33;;
14381;SDS011;7275;50.328;8.720;2022-07-22T07:27:48;2.13;;;1.92;;
14381;SDS011;7275;50.328;8.720;2022-07-22T07:30:19;2.00;;;1.90;;
14381;SDS011;7275;50.328;8.720;2022-07-22T07:32:47;2.20;;;2.00;;
14381;SDS011;7275;50.328;8.720;2022-07-22T07:35:17;2.47;;;2.28;;
14381;SDS011;7275;50.328;8.720;2022-07-22T07:37:44;2.53;;;2.13;;
14381;SDS011;7275;50.328;8.720;2022-07-22T07:40:12;2.20;;;2.10;;
14381;SDS011;7275;50.328;8.720;2022-07-22T07:42:41;2.50;;;2.30;;
14381;SDS011;7275;50.328;8.720;2022-07-22T07:45:13;2.17;;;1.98;;
14381;SDS011;7275;50.328;8.720;2022-07-22T07:47:40;2.53;;;2.25;;
14381;SDS011;7275;50.328;8.720;2022-07-22T07:50:09;2.55;;;2.20;;
14381;SDS011;7275;50.328;8.720;2022-07-22T07:52:39;2.60;;;2.30;;
14381;SDS011;7275;50.328;8.720;2022-07-22T07:55:10;2.35;;;2.15;;
14381;SDS011;7275;50.328;8.720;2022-07-22T07:57:38;2.00;;;1.90;;
14381;SDS011;7275;50.328;8.720;2022-07-22T08:00:08;2.25;;;2.05;;
14381;SDS011;7275;50.328;8.720;2022-07-22T08:02:38;2.72;;;2.05;;
14381;SDS011;7275;50.328;8.720;2022-07-22T08:05:06;2.30;;;2.10;;
14381;SDS011;7275;50.328;8.720;2022-07-22T08:07:35;2.10;;;2.00;;
14381;SDS011;7275;50.328;8.720;2022-07-22T08:10:06;2.25;;;2.00;;
14381;SDS011;7275;50.328;8.720;2022-07-22T08:12:54;2.22;;;2.05;;
14381;SDS011;7275;50.328;8.720;2022-07-22T08:15:24;2.30;;;2.00;;
14381;SDS011;7275;50.328;8.720;2022-07-22T08:17:51;2.17;;;2.00;;
14381;SDS011;7275;50.328;8.720;2022-07-22T08:20:19;2.40;;;2.20;;
14381;SDS011;7275;50.328;8.720;2022-07-22T08:22:48;3.25;;;2.30;;
14381;SDS011;7275;50.328;8.720;2022-07-22T08:25:17;2.63;;;2.03;;
14381;SDS011;7275;50.328;8.720;2022-07-22T08:27:47;2.38;;;2.17;;
14381;SDS011;7275;50.328;8.720;2022-07-22T08:30:15;2.28;;;2.00;;
14381;SDS011;7275;50.328;8.720;2022-07-22T08:32:44;2.17;;;2.03;;
14381;SDS011;7275;50.328;8.720;2022-07-22T08:35:11;2.45;;;2.10;;
14381;SDS011;7275;50.328;8.720;2022-07-22T08:37:39;2.40;;;2.20;;
14381;SDS011;7275;50.328;8.720;2022-07-22T08:40:07;2.47;;;2.28;;
14381;SDS011;7275;50.328;8.720;2022-07-22T08:42:38;2.25;;;2.15;;
14381;SDS011;7275;50.328;8.720;2022-07-22T08:45:07;2.10;;;2.00;;
14381;SDS011;7275;50.328;8.720;2022-07-22T08:47:43;2.35;;;2.15;;
14381;SDS011;7275;50.328;8.720;2022-07-22T08:50:11;2.28;;;2.08;;
14381;SDS011;7275;50.328;8.720;2022-07-22T08:52:39;2.28;;;2.08;;
14381;SDS011;7275;50.328;8.720;2022-07-22T08:55:08;2.13;;;2.03;;
14381;SDS011;7275;50.328;8.720;2022-07-22T08:57:36;2.15;;;2.00;;
14381;SDS011;7275;50.328;8.720;2022-07-22T09:00:10;2.42;;;2.22;;
14381;SDS011;7275;50.328;8.720;2022-07-22T09:02:40;2.28;;;2.15;;
14381;SDS011;7275;50.328;8.720;2022-07-22T09:05:09;2.20;;;2.00;;
14381;SDS011;7275;50.328;8.720;2022-07-22T09:08:00;2.17;;;2.08;;
14381;SDS011;7275;50.328;8.720;2022-07-22T09:10:30;2.65;;;2.45;;
14381;SDS011;7275;50.328;8.720;2022-07-22T09:12:59;2.70;;;2.10;;
14381;SDS011;7275;50.328;8.720;2022-07-22T09:15:29;1.95;;;1.85;;
14381;SDS011;7275;50.328;8.720;2022-07-22T09:17:58;2.42;;;2.22;;
14381;SDS011;7275;50.328;8.720;2022-07-22T09:20:32;2.15;;;2.03;;
14381;SDS011;7275;50.328;8.720;2022-07-22T09:23:00;2.45;;;2.25;;
14381;SDS011;7275;50.328;8.720;2022-07-22T09:25:30;2.17;;;2.05;;
14381;SDS011;7275;50.328;8.720;2022-07-22T09:28:09;2.17;;;2.08;;
14381;SDS011;7275;50.328;8.720;2022-07-22T09:30:47;2.20;;;2.00;;
14381;SDS011;7275;50.328;8.720;2022-07-22T09:33:18;2.10;;;1.90;;
14381;SDS011;7275;50.328;8.720;2022-07-22T09:35:46;2.17;;;2.08;;
14381;SDS011;7275;50.328;8.720;2022-07-22T09:38:16;2.45;;;2.25;;
14381;SDS011;7275;50.328;8.720;2022-07-22T09:40:46;1.90;;;1.80;;
14381;SDS011;7275;50.328;8.720;2022-07-22T09:43:16;2.13;;;2.03;;
14381;SDS011;7275;50.328;8.720;2022-07-22T09:45:46;5.25;;;2.00;;
14381;SDS011;7275;50.328;8.720;2022-07-22T09:48:16;2.05;;;1.95;;
14381;SDS011;7275;50.328;8.720;2022-07-22T09:50:45;2.67;;;2.00;;
14381;SDS011;7275;50.328;8.720;2022-07-22T09:53:13;2.50;;;2.30;;
14381;SDS011;7275;50.328;8.720;2022-07-22T09:55:41;2.08;;;1.98;;
14381;SDS011;7275;50.328;8.720;2022-07-22T09:58:09;2.00;;;1.90;;
14381;SDS011;7275;50.328;8.720;2022-07-22T10:00:38;2.28;;;2.10;;
14381;SDS011;7275;50.328;8.720;2022-07-22T10:03:10;2.03;;;1.92;;
14381;SDS011;7275;50.328;8.720;2022-07-22T10:05:41;2.47;;;2.28;;
14381;SDS011;7275;50.328;8.720;2022-07-22T10:08:09;2.08;;;1.98;;
14381;SDS011;7275;50.328;8.720;2022-07-22T10:10:37;2.00;;;1.90;;
14381;SDS011;7275;50.328;8.720;2022-07-22T10:13:07;2.38;;;2.17;;
14381;SDS011;7275;50.328;8.720;2022-07-22T10:15:35;2.30;;;2.10;;
14381;SDS011;7275;50.328;8.720;2022-07-22T10:18:05;2.40;;;2.20;;
14381;SDS011;7275;50.328;8.720;2022-07-22T10:20:35;2.10;;;2.00;;
14381;SDS011;7275;50.328;8.720;2022-07-22T10:23:04;2.50;;;2.30;;
14381;SDS011;7275;50.328;8.720;2022-07-22T10:28:24;2.17;;;2.08;;
14381;SDS011;7275;50.328;8.720;2022-07-22T10:30:53;2.20;;;2.00;;
14381;SDS011;7275;50.328;8.720;2022-07-22T10:33:34;2.08;;;1.98;;
14381;SDS011;7275;50.328;8.720;2022-07-22T10:36:05;2.22;;;2.03;;
14381;SDS011;7275;50.328;8.720;2022-07-22T10:38:34;2.28;;;2.00;;
14381;SDS011;7275;50.328;8.720;2022-07-22T10:41:02;2.20;;;2.10;;
14381;SDS011;7275;50.328;8.720;2022-07-22T10:43:44;3.05;;;2.10;;
14381;SDS011;7275;50.328;8.720;2022-07-22T10:46:14;2.30;;;2.13;;
14381;SDS011;7275;50.328;8.720;2022-07-22T10:48:46;2.47;;;2.28;;
14381;SDS011;7275;50.328;8.720;2022-07-22T10:51:16;2.45;;;2.25;;
14381;SDS011;7275;50.328;8.720;2022-07-22T10:53:47;2.65;;;2.45;;
14381;SDS011;7275;50.328;8.720;2022-07-22T10:56:22;2.60;;;2.40;;
14381;SDS011;7275;50.328;8.720;2022-07-22T10:58:54;2.33;;;2.13;;
14381;SDS011;7275;50.328;8.720;2022-07-22T11:01:37;2.75;;;2.40;;
14381;SDS011;7275;50.328;8.720;2022-07-22T11:04:07;2.42;;;2.22;;
14381;SDS011;7275;50.328;8.720;2022-07-22T11:06:44;2.70;;;2.30;;
14381;SDS011;7275;50.328;8.720;2022-07-22T11:09:13;2.60;;;2.40;;
14381;SDS011;7275;50.328;8.720;2022-07-22T11:11:42;2.30;;;2.10;;
14381;SDS011;7275;50.328;8.720;2022-07-22T11:14:23;2.55;;;2.35;;
14381;SDS011;7275;50.328;8.720;2022-07-22T11:16:53;2.95;;;2.20;;
14381;SDS011;7275;50.328;8.720;2022-07-22T11:19:23;2.45;;;2.25;;
14381;SDS011;7275;50.328;8.720;2022-07-22T11:21:54;2.53;;;2.33;;
14381;SDS011;7275;50.328;8.720;2022-07-22T11:24:22;2.50;;;2.30;;
14381;SDS011;7275;50.328;8.720;2022-07-22T11:26:51;2.50;;;2.30;;
14381;SDS011;7275;50.328;8.720;2022-07-22T11:29:28;2.17;;;2.08;;
14381;SDS011;7275;50.328;8.720;2022-07-22T11:31:57;2.95;;;2.05;;
14381;SDS011;7275;50.328;8.720;2022-07-22T11:34:25;2.58;;;2.38;;
14381;SDS011;7275;50.328;8.720;2022-07-22T11:36:56;2.50;;;2.30;;
14381;SDS011;7275;50.328;8.720;2022-07-22T11:39:25;2.22;;;2.10;;
14381;SDS011;7275;50.328;8.720;2022-07-22T11:41:56;2.42;;;2.22;;
14381;SDS011;7275;50.328;8.720;2022-07-22T11:44:26;2.35;;;2.25;;
14381;SDS011;7275;50.328;8.720;2022-07-22T11:46:57;2.50;;;2.30;;
14381;SDS011;7275;50.328;8.720;2022-07-22T11:49:26;2.38;;;2.28;;
14381;SDS011;7275;50.328;8.720;2022-07-22T11:51:58;2.50;;;2.30;;
14381;SDS011;7275;50.328;8.720;2022-07-22T11:54:25;2.60;;;2.40;;
14381;SDS011;7275;50.328;8.720;2022-07-22T11:56:53;2.58;;;2.38;;
14381;SDS011;7275;50.328;8.720;2022-07-22T11:59:23;2.30;;;2.10;;
14381;SDS011;7275;50.328;8.720;2022-07-22T12:01:51;2.50;;;2.30;;
14381;SDS011;7275;50.328;8.720;2022-07-22T12:04:19;2.47;;;2.28;;
14381;SDS011;7275;50.328;8.720;2022-07-22T12:06:49;2.40;;;2.20;;
14381;SDS011;7275;50.328;8.720;2022-07-22T12:09:21;2.65;;;2.42;;
14381;SDS011;7275;50.328;8.720;2022-07-22T12:11:51;2.80;;;2.20;;
14381;SDS011;7275;50.328;8.720;2022-07-22T12:14:21;2.60;;;2.20;;
14381;SDS011;7275;50.328;8.720;2022-07-22T12:16:53;2.50;;;2.30;;
14381;SDS011;7275;50.328;8.720;2022-07-22T12:19:23;2.38;;;2.17;;
14381;SDS011;7275;50.328;8.720;2022-07-22T12:21:52;2.60;;;2.40;;
14381;SDS011;7275;50.328;8.720;2022-07-22T12:24:26;2.33;;;2.13;;
14381;SDS011;7275;50.328;8.720;2022-07-22T12:26:56;2.72;;;2.53;;
14381;SDS011;7275;50.328;8.720;2022-07-22T12:29:27;2.60;;;2.40;;
14381;SDS011;7275;50.328;8.720;2022-07-22T12:31:57;2.67;;;2.47;;
14381;SDS011;7275;50.328;8.720;2022-07-22T12:34:34;3.53;;;2.58;;
14381;SDS011;7275;50.328;8.720;2022-07-22T12:39:54;2.45;;;2.25;;
14381;SDS011;7275;50.328;8.720;2022-07-22T12:42:24;2.70;;;2.50;;
14381;SDS011;7275;50.328;8.720;2022-07-22T12:44:58;2.50;;;2.30;;
14381;SDS011;7275;50.328;8.720;2022-07-22T12:47:40;2.72;;;2.53;;
14381;SDS011;7275;50.328;8.720;2022-07-22T12:50:19;2.50;;;2.30;;
14381;SDS011;7275;50.328;8.720;2022-07-22T12:52:50;2.28;;;2.17;;
14381;SDS011;7275;50.328;8.720;2022-07-22T12:55:41;2.55;;;2.35;;
14381;SDS011;7275;50.328;8.720;2022-07-22T12:58:10;2.78;;;2.58;;
14381;SDS011;7275;50.328;8.720;2022-07-22T13:00:39;3.10;;;2.50;;
14381;SDS011;7275;50.328;8.720;2022-07-22T13:03:08;2.67;;;2.47;;
14381;SDS011;7275;50.328;8.720;2022-07-22T13:05:35;2.55;;;2.35;;
14381;SDS011;7275;50.328;8.720;2022-07-22T13:08:04;2.70;;;2.50;;
14381;SDS011;7275;50.328;8.720;2022-07-22T13:10:35;2.50;;;2.30;;
14381;SDS011;7275;50.328;8.720;2022-07-22T13:13:06;2.58;;;2.38;;
14381;SDS011;7275;50.328;8.720;2022-07-22T13:15:33;4.10;;;2.50;;
14381;SDS011;7275;50.328;8.720;2022-07-22T13:18:01;2.55;;;2.35;;
14381;SDS011;7275;50.328;8.720;2022-07-22T13:20:29;2.67;;;2.47;;
14381;SDS011;7275;50.328;8.720;2022-07-22T13:22:57;3.53;;;2.70;;
14381;SDS011;7275;50.328;8.720;2022-07-22T13:25:25;2.83;;;2.63;;
14381;SDS011;7275;50.328;8.720;2022-07-22T13:27:53;2.70;;;2.50;;
14381;SDS011;7275;50.328;8.720;2022-07-22T13:30:23;2.53;;;2.33;;
14381;SDS011;7275;50.328;8.720;2022-07-22T13:32:51;2.70;;;2.50;;
14381;SDS011;7275;50.328;8.720;2022-07-22T13:35:18;3.13;;;2.63;;
14381;SDS011;7275;50.328;8.720;2022-07-22T13:37:46;2.60;;;2.40;;
14381;SDS011;7275;50.328;8.720;2022-07-22T13:40:14;2.65;;;2.45;;
14381;SDS011;7275;50.328;8.720;2022-07-22T13:42:41;2.65;;;2.45;;
14381;SDS011;7275;50.328;8.720;2022-07-22T13:45:09;3.60;;;3.10;;
14381;SDS011;7275;50.328;8.720;2022-07-22T13:47:40;2.63;;;2.42;;
14381;SDS011;7275;50.328;8.720;2022-07-22T13:50:08;2.72;;;2.53;;
14381;SDS011;7275;50.328;8.720;2022-07-22T13:52:36;2.83;;;2.58;;
14381;SDS011;7275;50.328;8.720;2022-07-22T13:55:04;2.90;;;2.70;;
14381;SDS011;7275;50.328;8.720;2022-07-22T13:57:32;3.08;;;2.70;;
14381;SDS011;7275;50.328;8.720;2022-07-22T14:00:01;2.80;;;2.60;;
14381;SDS011;7275;50.328;8.720;2022-07-22T14:02:29;2.67;;;2.47;;
14381;SDS011;7275;50.328;8.720;2022-07-22T14:04:58;3.78;;;3.00;;
14381;SDS011;7275;50.328;8.720;2022-07-22T14:07:25;2.80;;;2.60;;
14381;SDS011;7275;50.328;8.720;2022-07-22T14:09:53;3.90;;;2.70;;
14381;SDS011;7275;50.328;8.720;2022-07-22T14:12:21;2.60;;;2.40;;
14381;SDS011;7275;50.328;8.720;2022-07-22T14:14:49;2.67;;;2.47;;
14381;SDS011;7275;50.328;8.720;2022-07-22T14:17:16;4.07;;;2.70;;
14381;SDS011;7275;50.328;8.720;2022-07-22T14:19:50;2.75;;;2.55;;
14381;SDS011;7275;50.328;8.720;2022-07-22T14:22:27;2.72;;;2.53;;
14381;SDS011;7275;50.328;8.720;2022-07-22T14:24:54;2.80;;;2.60;;
14381;SDS011;7275;50.328;8.720;2022-07-22T14:27:22;2.75;;;2.55;;
14381;SDS011;7275;50.328;8.720;2022-07-22T14:29:49;3.10;;;2.72;;
14381;SDS011;7275;50.328;8.720;2022-07-22T14:32:17;3.00;;;2.80;;
14381;SDS011;7275;50.328;8.720;2022-07-22T14:34:45;2.80;;;2.60;;
14381;SDS011;7275;50.328;8.720;2022-07-22T14:37:13;3.28;;;2.80;;
14381;SDS011;7275;50.328;8.720;2022-07-22T14:39:42;3.60;;;2.85;;
14381;SDS011;7275;50.328;8.720;2022-07-22T14:42:10;2.95;;;2.65;;
14381;SDS011;7275;50.328;8.720;2022-07-22T14:44:37;3.88;;;2.45;;
14381;SDS011;7275;50.328;8.720;2022-07-22T14:47:05;2.97;;;2.50;;
14381;SDS011;7275;50.328;8.720;2022-07-22T14:49:33;3.00;;;2.70;;
14381;SDS011;7275;50.328;8.720;2022-07-22T14:52:01;2.85;;;2.65;;
14381;SDS011;7275;50.328;8.720;2022-07-22T14:54:28;2.90;;;2.70;;
14381;SDS011;7275;50.328;8.720;2022-07-22T14:56:57;2.70;;;2.50;;
14381;SDS011;7275;50.328;8.720;2022-07-22T14:59:24;2.83;;;2.60;;
14381;SDS011;7275;50.328;8.720;2022-07-22T15:01:52;4.88;;;3.05;;
14381;SDS011;7275;50.328;8.720;2022-07-22T15:04:20;3.88;;;2.75;;
14381;SDS011;7275;50.328;8.720;2022-07-22T15:06:47;3.47;;;2.80;;
14381;SDS011;7275;50.328;8.720;2022-07-22T15:09:15;3.03;;;2.75;;
14381;SDS011;7275;50.328;8.720;2022-07-22T15:11:43;5.00;;;2.75;;
14381;SDS011;7275;50.328;8.720;2022-07-22T15:14:12;3.17;;;2.65;;
14381;SDS011;7275;50.328;8.720;2022-07-22T15:16:39;2.88;;;2.67;;
14381;SDS011;7275;50.328;8.720;2022-07-22T15:19:07;3.20;;;2.90;;